Skip Navigation Links
NOAA logo - Click to go to the NOAA homepage
NOAA's National Weather Service
Alaska Aviation Weather Unit
  NWS logo - Click to go to the NWS homepage
Left Navbar Graphic     01 AKDT = 09 GMT

   
NOAA is celebrating 200 years of science, service, and stewardship. Visit the NOAA 200th celebration Web site to learn more.
USA.gov is the U.S. Government's official Web portal to all Federal, state and local government Web resources and services.
Facebook
NWS on Facebook

Important Change Regarding the AAWU Web Presence

 

Over the last several months, the AAWU has been working to navigate its webpages to a nationally supported server. Security, as well as other needs, have necessitated the change.  We have been given an extension for the site changeover while we diligently work at addressing feedback received. As of July 14, 2017, aawu.arh.noaa.gov will be discontinued. The new AAWU web address is weather.gov/aawu. It is now live and will run in-parallel with the old site until it is discontinued on July 14, 2017. Please continue to send any feedback or questions regarding the new webpages to nws.ar.aawu.webauthors@noaa.gov.  Thank you for your patience during this time of transition.
AAWU Home :: Display TAF Add Bookmark
TAF PAVD 190538Z 1906/2006  VRB03KT 6SM -RA OVC045
      TEMPO 1907/1910 4SM -RA BR BKN025
     FM191000 VRB03KT 4SM -RA BR OVC012
     FM192100 VRB03KT P6SM -SHRA BKN035
      AMD LTD TO CLD VIS AND WIND=

9041
FTAK31 PANC 190538
TAFACV
TAF
PAVD 190316Z 00000KT 10SM FEW001 BKN050 OVC120 10/08 A2981=

METAR PAVD 190316Z 00000KT 10SM FEW001 BKN050 OVC120 10/08 A2981 RMK AO1
     0247Z WEA: RA TWR WND 00000KT P0001=

METAR PAVD 190336Z 00000KT 10SM FEW001 BKN050 OVC120 09/07 A2981=

METAR PAVD 190336Z 00000KT 10SM FEW001 BKN050 OVC120 09/07 A2981 RMK
 AO1
 0247Z WEA: RA TWR WND 00000KT P0002=

METAR PAVD 190356Z 00000KT 10SM FEW001 BKN060 OVC150 09/07 A2981=

METAR PAVD 190416Z 00000KT 10SM FEW001 BKN060 OVC150 09/07 A2981=

METAR PAVD 190416Z 00000KT 10SM FEW001 BKN060 OVC150 09/07 A2981 RMK AO1
     0347Z WEA: -RA TWR WND 00000KT=

PAVD 190436Z 00000KT 10SM FEW001 BKN060 OVC150 09/07 A2981=

METAR PAVD 190436Z 00000KT 10SM FEW001 BKN060 OVC150 09/07 A2981 RMK AO1
     0347Z WEA: -RA TWR WND 00000KT P0001=

METAR PAVD 190456Z 06003KT 10SM FEW001 BKN060 OVC150 09/08 A2981=

METAR PAVD 190516Z 00000KT 10SM FEW001 BKN060 OVC150 09/07 A2981=

METAR PAVD 190516Z 00000KT 10SM FEW001 BKN060 OVC150 09/07 A2981 RMK AO1
     0447Z WEA: -RA TWR WND 00000KT=

METAR PAVD 190536Z 00000KT 10SM FEW001 BKN060 OVC150 09/07 A2980=

METAR PAVD 190536Z 00000KT 10SM FEW001 BKN060 OVC150 09/07 A2980 RMK AO1
     0447Z WEA: -RA TWR WND 00000KT=

METAR PAVD 190556Z 00000KT 10SM FEW001 BKN070 OVC150 09/07 A2981=

PAVD 190616Z 00000KT 10SM OVC060 09/07 A2981=

METAR PAVD 190616Z 00000KT 10SM OVC060 09/07 A2981 RMK AO1=

METAR PAVD 190636Z 00000KT 10SM BKN060 OVC065 09/07 A2981=

METAR PAVD 190636Z 00000KT 10SM BKN060 OVC065 09/07 A2981 RMK AO1=

METAR PAVD 190656Z 00000KT 10SM SCT050 BKN060 OVC085 09/07 A2981=

PAVD 190716Z 00000KT 10SM FEW004 BKN070 OVC085 09/07 A2980=

METAR PAVD 190716Z 00000KT 10SM FEW004 BKN070 OVC085 09/07 A2980 RMK
     AO1=

PAVD 190736Z 10005KT 10SM OVC070 08/07 A2980=

METAR PAVD 190736Z 10005KT 10SM OVC070 08/07 A2980 RMK AO1=

METAR PAVD 190756Z 00000KT 10SM BKN050 OVC060 08/07 A2980=

PAVD 190816Z 12003KT 10SM BKN050 OVC070 08/06 A2980=

METAR PAVD 190816Z 12003KT 10SM BKN050 OVC070 08/06 A2980 RMK AO1=

PAVD 190836Z 07003KT 10SM OVC050 08/06 A2980=

METAR PAVD 190836Z 07003KT 10SM OVC050 08/06 A2980 RMK AO1
 P0002=

METAR PAVD 190856Z 10003KT 9SM OVC050 08/06 A2979=


NOAA's National Weather Service
Alaska Aviation Weather Unit
6930 Sand Lake Road
Anchorage, AK 99502-1845
Disclaimer
Credits
Glossary
Privacy Policy
About Us
Career Opportunities
Contact AAWU Internet Services Site last modified: April, 17th 2012